createdAt,value
2017-10-30T00:00:54.082Z,92.60
2017-10-30T00:03:22.300Z,92.80
2017-10-30T00:05:53.822Z,92.50
2017-10-30T00:08:22.079Z,92.50
2017-10-30T00:10:51.102Z,92.30
2017-10-30T00:13:19.343Z,92.50
2017-10-30T00:15:47.603Z,92.50
2017-10-30T00:18:16.642Z,92.20
2017-10-30T00:20:44.882Z,92.20
2017-10-30T00:23:13.871Z,92.20
2017-10-30T00:25:42.120Z,92.20
2017-10-30T00:28:11.173Z,92.60
2017-10-30T00:30:40.197Z,92.50
2017-10-30T00:33:08.584Z,92.70
2017-10-30T00:35:36.868Z,92.80
2017-10-30T00:38:05.150Z,92.70
2017-10-30T00:40:33.397Z,92.70
2017-10-30T00:43:01.627Z,92.60
2017-10-30T00:45:29.881Z,92.60
2017-10-30T00:47:59.455Z,92.70
2017-10-30T00:50:27.702Z,92.70
2017-10-30T00:52:55.946Z,92.70
2017-10-30T00:55:24.964Z,93.20
2017-10-30T00:57:53.200Z,92.90
2017-10-30T01:00:21.476Z,92.70
2017-10-30T01:02:49.711Z,92.90
2017-10-30T01:05:18.008Z,92.70
2017-10-30T01:07:46.743Z,92.70
2017-10-30T01:10:15.736Z,92.40
2017-10-30T01:12:44.752Z,92.50
2017-10-30T01:15:13.743Z,92.70
2017-10-30T01:17:41.999Z,92.70
2017-10-30T01:20:11.614Z,93.10
2017-10-30T01:22:39.875Z,92.70
2017-10-30T01:25:08.156Z,92.80
2017-10-30T01:27:36.419Z,92.80
2017-10-30T01:30:04.671Z,92.90
2017-10-30T01:32:32.892Z,93.10
2017-10-30T01:35:01.161Z,93.00
2017-10-30T01:37:30.185Z,93.00
2017-10-30T01:39:58.449Z,92.90
2017-10-30T01:42:26.726Z,93.00
2017-10-30T01:44:55.738Z,93.10
2017-10-30T01:47:23.995Z,93.00
2017-10-30T01:49:52.708Z,93.00
2017-10-30T01:52:20.945Z,93.00
2017-10-30T01:54:49.218Z,93.10
2017-10-30T01:57:17.469Z,93.00
2017-10-30T01:59:45.742Z,93.20
2017-10-30T02:02:13.998Z,93.00
2017-10-30T02:04:42.274Z,92.90
2017-10-30T02:07:10.520Z,92.90
2017-10-30T02:09:39.519Z,92.80
2017-10-30T02:12:08.539Z,92.70
2017-10-30T02:14:36.784Z,92.70
2017-10-30T02:17:05.075Z,92.70
2017-10-30T02:19:34.071Z,92.80
2017-10-30T02:22:02.348Z,92.80
2017-10-30T02:24:30.630Z,92.60
2017-10-30T02:26:58.883Z,92.50
2017-10-30T02:29:27.942Z,92.40
2017-10-30T02:31:56.199Z,92.40
2017-10-30T02:34:24.543Z,92.30
2017-10-30T02:36:53.577Z,92.40
2017-10-30T02:39:21.827Z,92.40
2017-10-30T02:41:50.144Z,92.40
2017-10-30T02:44:18.407Z,92.60
2017-10-30T02:46:46.683Z,92.40
2017-10-30T02:49:14.978Z,92.30
2017-10-30T02:51:43.399Z,92.40
2017-10-30T02:54:11.704Z,92.40
2017-10-30T02:56:39.966Z,92.40
2017-10-30T02:59:08.986Z,92.30
2017-10-30T03:01:37.278Z,92.30
2017-10-30T03:04:05.536Z,92.50
2017-10-30T03:06:33.815Z,92.40
2017-10-30T03:09:02.078Z,92.60
2017-10-30T03:11:30.347Z,92.70
2017-10-30T03:13:58.623Z,92.60
2017-10-30T03:16:26.875Z,92.40
2017-10-30T03:18:55.151Z,92.50
2017-10-30T03:21:24.165Z,92.50
2017-10-30T03:23:52.433Z,92.50
2017-10-30T03:26:21.434Z,92.60
2017-10-30T03:28:50.451Z,92.30
2017-10-30T03:31:19.680Z,92.30
2017-10-30T03:33:47.921Z,92.30
2017-10-30T03:36:16.229Z,92.20
2017-10-30T03:38:44.505Z,92.10
2017-10-30T03:41:12.804Z,92.30
2017-10-30T03:43:41.762Z,92.20
2017-10-30T03:46:10.009Z,92.10
2017-10-30T03:48:39.035Z,91.80
2017-10-30T03:51:07.286Z,91.80
2017-10-30T03:53:36.310Z,91.80
2017-10-30T03:56:05.335Z,91.90
2017-10-30T03:58:33.604Z,92.20
2017-10-30T04:01:01.850Z,92.00
2017-10-30T04:03:30.095Z,92.20
2017-10-30T04:05:59.146Z,92.00
2017-10-30T04:08:27.454Z,92.00
2017-10-30T04:10:55.695Z,91.90
2017-10-30T04:13:23.954Z,92.10
2017-10-30T04:15:52.198Z,92.10
2017-10-30T04:18:20.817Z,92.30
2017-10-30T04:20:49.699Z,91.90
2017-10-30T04:23:18.716Z,91.90
2017-10-30T04:25:46.938Z,91.90
2017-10-30T04:28:15.218Z,91.90
2017-10-30T04:30:43.452Z,91.90
2017-10-30T04:33:11.701Z,92.00
2017-10-30T04:35:40.690Z,92.10
2017-10-30T04:38:09.717Z,92.20
2017-10-30T04:40:37.988Z,92.20
2017-10-30T04:43:06.239Z,92.30
2017-10-30T04:45:35.252Z,92.30
2017-10-30T04:48:03.507Z,92.30
2017-10-30T04:50:31.742Z,92.20
2017-10-30T04:52:59.987Z,91.90
2017-10-30T04:55:28.250Z,91.90
2017-10-30T04:57:56.510Z,91.80
2017-10-30T05:00:25.557Z,91.70
2017-10-30T05:02:53.808Z,91.70
2017-10-30T05:05:22.051Z,91.60
2017-10-30T05:07:51.095Z,91.80
2017-10-30T05:10:19.319Z,91.80
2017-10-30T05:12:48.379Z,91.80
2017-10-30T05:15:16.607Z,91.80
2017-10-30T05:17:45.603Z,92.10
2017-10-30T05:20:14.631Z,92.40
2017-10-30T05:22:42.874Z,92.10
2017-10-30T05:25:11.907Z,91.70
2017-10-30T05:27:40.599Z,91.70
2017-10-30T05:30:08.876Z,91.70
2017-10-30T05:32:37.101Z,91.70
2017-10-30T05:35:05.327Z,91.70
2017-10-30T05:37:33.600Z,91.70
2017-10-30T05:40:01.846Z,91.60
2017-10-30T05:42:30.921Z,91.80
2017-10-30T05:44:59.178Z,91.80
2017-10-30T05:47:27.407Z,91.70
2017-10-30T05:49:56.450Z,91.80
2017-10-30T05:52:24.695Z,91.80
2017-10-30T05:54:52.960Z,91.80
2017-10-30T05:57:21.236Z,92.00
2017-10-30T05:59:49.516Z,91.90
2017-10-30T06:02:18.645Z,91.90
2017-10-30T06:04:47.266Z,91.90
2017-10-30T06:07:15.498Z,91.80
2017-10-30T06:09:43.749Z,91.80
2017-10-30T06:12:11.978Z,92.00
2017-10-30T06:14:40.250Z,91.90
2017-10-30T06:17:08.526Z,91.80
2017-10-30T06:19:36.778Z,91.90
2017-10-30T06:22:05.054Z,91.60
2017-10-30T06:24:33.313Z,91.90
2017-10-30T06:27:02.304Z,91.90
2017-10-30T06:29:30.574Z,91.80
2017-10-30T06:31:59.567Z,91.70
2017-10-30T06:34:27.867Z,91.70
2017-10-30T06:36:56.095Z,91.70
2017-10-30T06:39:24.345Z,91.70
2017-10-30T06:41:52.579Z,91.70
2017-10-30T06:44:21.621Z,91.90
2017-10-30T06:46:49.874Z,91.90
2017-10-30T06:49:18.099Z,91.60
2017-10-30T06:51:47.135Z,91.40
2017-10-30T06:54:16.110Z,91.50
2017-10-30T06:56:45.151Z,91.50
2017-10-30T06:59:13.410Z,91.80
2017-10-30T07:01:41.680Z,91.70
2017-10-30T07:04:10.743Z,91.80
2017-10-30T07:06:39.756Z,91.80
2017-10-30T07:09:08.020Z,91.50
2017-10-30T07:11:36.355Z,91.70
2017-10-30T07:14:04.596Z,91.70
2017-10-30T07:16:33.609Z,91.20
2017-10-30T07:19:01.862Z,91.20
2017-10-30T07:21:30.129Z,91.30
2017-10-30T07:23:59.133Z,91.10
2017-10-30T07:26:28.138Z,91.00
2017-10-30T07:28:56.399Z,91.00
2017-10-30T07:31:25.432Z,91.00
2017-10-30T07:33:54.029Z,90.90
2017-10-30T07:36:22.270Z,91.20
2017-10-30T07:38:50.612Z,91.10
2017-10-30T07:41:18.830Z,91.20
2017-10-30T07:43:47.087Z,91.20
2017-10-30T07:46:15.390Z,91.10
2017-10-30T07:48:43.681Z,91.10
2017-10-30T07:51:11.945Z,91.30
2017-10-30T07:53:40.198Z,91.10
2017-10-30T07:56:08.486Z,91.00
2017-10-30T07:58:36.758Z,90.90
2017-10-30T08:01:05.754Z,90.40
2017-10-30T08:03:34.106Z,90.40
2017-10-30T08:06:02.355Z,90.60
2017-10-30T08:08:30.630Z,90.60
2017-10-30T08:10:58.905Z,90.20
2017-10-30T08:13:27.167Z,90.40
2017-10-30T08:15:55.430Z,90.30
2017-10-30T08:18:23.700Z,90.20
2017-10-30T08:20:51.968Z,90.10
2017-10-30T08:23:21.064Z,90.00
2017-10-30T08:25:49.311Z,90.00
2017-10-30T08:28:17.578Z,89.80
2017-10-30T08:30:45.812Z,89.40
2017-10-30T08:33:14.128Z,89.60
2017-10-30T08:35:43.251Z,89.80
2017-10-30T08:38:11.498Z,89.80
2017-10-30T08:40:40.801Z,89.60
2017-10-30T08:43:10.186Z,89.30
2017-10-30T08:45:38.508Z,89.30
2017-10-30T08:48:06.768Z,89.40
2017-10-30T08:50:35.835Z,89.80
2017-10-30T08:53:04.635Z,89.70
2017-10-30T08:55:33.365Z,89.40
2017-10-30T08:58:01.599Z,89.90
2017-10-30T09:00:30.595Z,90.00
2017-10-30T09:02:58.869Z,89.90
2017-10-30T09:05:27.490Z,89.50
2017-10-30T09:07:56.547Z,89.50
2017-10-30T09:10:24.913Z,89.50
2017-10-30T09:12:53.192Z,89.60
2017-10-30T09:15:21.470Z,89.40
2017-10-30T09:17:49.761Z,88.20
2017-10-30T09:20:18.142Z,88.50
2017-10-30T09:22:47.381Z,88.00
2017-10-30T09:25:15.634Z,89.00
2017-10-30T09:27:43.923Z,88.60
2017-10-30T09:30:12.215Z,88.00
2017-10-30T09:32:41.401Z,86.60
2017-10-30T09:35:09.670Z,86.50
2017-10-30T09:37:37.957Z,86.60
2017-10-30T09:40:07.301Z,86.50
2017-10-30T09:42:35.575Z,86.50
2017-10-30T09:45:03.873Z,85.90
2017-10-30T09:47:33.052Z,86.10
2017-10-30T09:50:02.062Z,87.30
2017-10-30T09:52:30.322Z,86.70
2017-10-30T09:54:58.601Z,86.20
2017-10-30T09:57:26.881Z,85.80
2017-10-30T09:59:55.187Z,86.00
2017-10-30T10:02:23.470Z,86.80
2017-10-30T10:04:51.763Z,86.40
2017-10-30T10:07:20.051Z,86.80
2017-10-30T10:09:49.085Z,86.00
2017-10-30T10:12:17.437Z,86.00
2017-10-30T10:14:45.725Z,86.40
2017-10-30T10:17:14.006Z,87.00
2017-10-30T10:19:43.048Z,86.90
2017-10-30T10:22:11.348Z,86.90
2017-10-30T10:24:39.626Z,87.60
2017-10-30T10:27:07.883Z,87.00
2017-10-30T10:29:36.194Z,86.10
2017-10-30T10:32:04.507Z,85.30
2017-10-30T10:34:33.287Z,85.50
2017-10-30T10:37:02.281Z,85.20
2017-10-30T10:39:32.162Z,85.10
2017-10-30T10:42:00.452Z,85.10
2017-10-30T10:44:29.501Z,85.00
2017-10-30T10:46:57.811Z,84.90
2017-10-30T10:49:26.098Z,85.40
2017-10-30T10:51:54.349Z,84.20
2017-10-30T10:54:22.611Z,84.10
2017-10-30T10:56:51.660Z,84.40
2017-10-30T10:59:20.697Z,85.00
2017-10-30T11:01:48.930Z,85.00
2017-10-30T11:04:17.954Z,85.50
2017-10-30T11:06:46.182Z,84.90
2017-10-30T11:09:15.679Z,85.10
2017-10-30T11:11:43.936Z,85.00
2017-10-30T11:14:12.207Z,85.00
2017-10-30T11:16:40.480Z,84.90
2017-10-30T11:19:08.742Z,84.90
2017-10-30T11:21:37.091Z,84.90
2017-10-30T11:24:05.367Z,84.90
2017-10-30T11:26:34.401Z,84.30
2017-10-30T11:29:02.687Z,84.40
2017-10-30T11:31:30.935Z,83.50
2017-10-30T11:33:59.954Z,83.50
2017-10-30T11:36:28.222Z,83.50
2017-10-30T11:38:56.473Z,83.60
2017-10-30T11:41:24.717Z,84.80
2017-10-30T11:43:53.000Z,84.30
2017-10-30T11:46:21.291Z,84.90
2017-10-30T11:48:49.557Z,83.10
2017-10-30T11:51:17.829Z,83.90
2017-10-30T11:53:46.128Z,84.30
2017-10-30T11:56:14.359Z,84.10
2017-10-30T11:58:42.662Z,84.10
2017-10-30T12:01:10.901Z,84.50
2017-10-30T12:03:39.185Z,83.50
2017-10-30T12:06:07.489Z,84.20
2017-10-30T12:08:36.177Z,84.90
2017-10-30T12:11:04.404Z,83.60
2017-10-30T12:13:32.638Z,83.70
2017-10-30T12:16:00.922Z,83.60
2017-10-30T12:18:29.188Z,83.70
2017-10-30T12:20:57.467Z,82.00
2017-10-30T12:23:25.719Z,81.40
2017-10-30T12:25:53.967Z,81.00
2017-10-30T12:28:23.015Z,85.80
2017-10-30T12:30:51.339Z,85.80
2017-10-30T12:33:19.582Z,86.00
2017-10-30T12:35:47.874Z,85.80
2017-10-30T12:38:16.171Z,85.20
2017-10-30T12:40:45.207Z,85.20
2017-10-30T12:43:13.450Z,85.20
2017-10-30T12:45:42.466Z,85.80
2017-10-30T12:48:10.723Z,85.80
2017-10-30T12:50:39.744Z,85.40
2017-10-30T12:53:08.012Z,85.30
2017-10-30T12:55:37.860Z,85.10
2017-10-30T12:58:06.952Z,82.50
2017-10-30T13:00:35.209Z,82.50
2017-10-30T13:03:03.549Z,83.20
2017-10-30T13:05:32.889Z,83.20
2017-10-30T13:08:01.194Z,83.50
2017-10-30T13:10:29.511Z,82.70
2017-10-30T13:12:57.798Z,81.20
2017-10-30T13:15:26.078Z,80.60
2017-10-30T13:17:54.393Z,80.80
2017-10-30T13:20:22.658Z,81.80
2017-10-30T13:22:51.522Z,80.90
2017-10-30T13:25:20.547Z,81.70
2017-10-30T13:27:48.818Z,81.70
2017-10-30T13:30:17.070Z,82.00
2017-10-30T13:32:46.050Z,81.10
2017-10-30T13:35:16.394Z,82.10
2017-10-30T13:37:44.981Z,82.00
2017-10-30T13:40:13.250Z,83.70
2017-10-30T13:42:43.991Z,82.30
2017-10-30T13:45:13.363Z,81.60
2017-10-30T13:47:43.339Z,81.30
2017-10-30T13:50:11.966Z,81.20
2017-10-30T13:52:41.035Z,78.70
2017-10-30T13:55:09.301Z,78.70
2017-10-30T13:57:37.576Z,78.70
2017-10-30T14:00:06.833Z,78.40
2017-10-30T14:02:37.088Z,80.40
2017-10-30T14:05:06.483Z,80.20
2017-10-30T14:07:35.510Z,80.30
2017-10-30T14:10:03.767Z,80.30
2017-10-30T14:12:33.230Z,80.30
2017-10-30T14:15:01.497Z,81.50
2017-10-30T14:17:31.527Z,81.70
2017-10-30T14:20:01.341Z,82.60
2017-10-30T14:22:29.669Z,82.60
2017-10-30T14:24:59.625Z,82.30
2017-10-30T14:27:27.857Z,82.30
2017-10-30T14:29:56.185Z,82.30
2017-10-30T14:32:24.482Z,82.40
2017-10-30T14:34:52.793Z,83.00
2017-10-30T14:37:21.078Z,83.60
2017-10-30T14:39:49.357Z,84.10
2017-10-30T14:42:17.674Z,83.00
2017-10-30T14:44:46.535Z,83.50
2017-10-30T14:47:15.866Z,83.80
2017-10-30T14:49:46.086Z,83.50
2017-10-30T14:52:17.695Z,83.00
2017-10-30T14:54:48.553Z,82.90
2017-10-30T14:57:16.801Z,83.10
2017-10-30T14:59:46.549Z,82.40
2017-10-30T15:02:16.458Z,82.50
2017-10-30T15:04:46.689Z,82.40
2017-10-30T15:07:15.028Z,82.10
2017-10-30T15:09:44.962Z,82.00
2017-10-30T15:12:13.532Z,82.60
2017-10-30T15:14:44.067Z,83.40
2017-10-30T15:17:13.319Z,83.10
2017-10-30T15:19:42.724Z,83.70
2017-10-30T15:22:12.735Z,83.20
2017-10-30T15:24:41.034Z,83.60
2017-10-30T15:27:10.526Z,83.30
2017-10-30T15:29:40.160Z,83.60
2017-10-30T15:32:09.246Z,84.50
2017-10-30T15:34:38.596Z,84.80
2017-10-30T15:37:06.847Z,84.70
2017-10-30T15:39:36.326Z,85.10
2017-10-30T15:42:04.547Z,85.10
2017-10-30T15:44:32.825Z,84.70
2017-10-30T15:47:01.120Z,84.50
2017-10-30T15:49:29.351Z,84.60
2017-10-30T15:51:57.641Z,84.60
2017-10-30T15:54:25.954Z,84.80
2017-10-30T15:56:54.677Z,84.90
2017-10-30T15:59:22.909Z,85.00
2017-10-30T16:01:51.147Z,84.80
2017-10-30T16:04:19.457Z,84.70
2017-10-30T16:06:47.672Z,85.00
2017-10-30T16:09:16.769Z,85.10
2017-10-30T16:11:45.430Z,85.10
2017-10-30T16:14:13.720Z,85.60
2017-10-30T16:16:41.976Z,86.10
2017-10-30T16:19:10.221Z,85.90
2017-10-30T16:21:38.484Z,86.10
2017-10-30T16:24:07.487Z,86.10
2017-10-30T16:26:35.816Z,86.10
2017-10-30T16:29:04.101Z,85.90
2017-10-30T16:31:32.327Z,86.40
2017-10-30T16:34:01.360Z,86.10
2017-10-30T16:36:29.648Z,86.10
2017-10-30T16:38:57.899Z,86.50
2017-10-30T16:41:26.224Z,86.90
2017-10-30T16:43:54.427Z,87.10
2017-10-30T16:46:22.742Z,87.00
2017-10-30T16:48:51.000Z,87.10
2017-10-30T16:51:19.289Z,86.70
2017-10-30T16:53:47.527Z,86.40
2017-10-30T16:56:16.544Z,87.50
2017-10-30T16:58:44.877Z,87.50
2017-10-30T17:01:13.136Z,87.60
2017-10-30T17:03:41.393Z,87.70
2017-10-30T17:06:10.022Z,87.80
2017-10-30T17:08:38.278Z,87.80
2017-10-30T17:11:06.557Z,87.50
2017-10-30T17:13:34.799Z,87.90
2017-10-30T17:16:03.140Z,88.90
2017-10-30T17:18:32.149Z,90.50
2017-10-30T17:21:01.219Z,90.50
2017-10-30T17:23:29.486Z,90.40
2017-10-30T17:25:57.727Z,91.20
2017-10-30T17:28:26.005Z,91.50
2017-10-30T17:30:54.235Z,92.00
2017-10-30T17:33:23.287Z,93.30
2017-10-30T17:35:51.537Z,93.00
2017-10-30T17:38:19.843Z,93.10
2017-10-30T17:40:48.091Z,93.00
2017-10-30T17:43:17.070Z,93.40
2017-10-30T17:45:46.123Z,94.10
2017-10-30T17:48:14.376Z,94.10
2017-10-30T17:50:42.675Z,94.50
2017-10-30T17:53:10.999Z,94.50
2017-10-30T17:55:39.227Z,94.90
2017-10-30T17:58:07.694Z,94.60
2017-10-30T18:00:35.952Z,95.00
2017-10-30T18:03:04.229Z,95.20
2017-10-30T18:05:32.496Z,95.70
2017-10-30T18:08:01.547Z,95.30
2017-10-30T18:10:29.834Z,95.30
2017-10-30T18:12:58.102Z,95.90
2017-10-30T18:15:26.396Z,95.80
2017-10-30T18:17:54.679Z,96.00
2017-10-30T18:20:22.994Z,96.10
2017-10-30T18:22:51.282Z,96.10
2017-10-30T18:25:19.546Z,96.30
2017-10-30T18:27:47.820Z,96.40
2017-10-30T18:30:16.423Z,96.50
2017-10-30T18:32:45.459Z,96.60
2017-10-30T18:35:15.618Z,96.60
2017-10-30T18:37:43.907Z,96.30
2017-10-30T18:40:13.855Z,96.00
2017-10-30T18:42:42.241Z,96.00
2017-10-30T18:45:11.266Z,96.00
2017-10-30T18:47:40.398Z,96.20
2017-10-30T18:50:09.456Z,96.50
2017-10-30T18:52:37.783Z,96.50
2017-10-30T18:55:07.942Z,96.60
2017-10-30T18:57:38.079Z,96.90
2017-10-30T19:00:07.163Z,96.90
2017-10-30T19:02:36.230Z,97.30
2017-10-30T19:05:04.523Z,97.10
2017-10-30T19:07:32.746Z,97.10
2017-10-30T19:10:01.049Z,97.00
2017-10-30T19:12:29.677Z,97.00
2017-10-30T19:14:57.965Z,96.90
2017-10-30T19:17:26.996Z,97.00
2017-10-30T19:19:56.573Z,96.70
2017-10-30T19:22:24.808Z,96.70
2017-10-30T19:24:53.088Z,96.80
2017-10-30T19:27:21.426Z,97.10
2017-10-30T19:29:50.100Z,96.80
2017-10-30T19:32:18.375Z,97.00
2017-10-30T19:34:46.852Z,97.20
2017-10-30T19:37:15.209Z,97.30
2017-10-30T19:39:43.606Z,97.00
2017-10-30T19:42:11.881Z,97.20
2017-10-30T19:44:41.902Z,97.20
2017-10-30T19:47:11.088Z,97.50
2017-10-30T19:49:41.560Z,97.10
2017-10-30T19:52:12.932Z,97.00
2017-10-30T19:54:41.568Z,97.00
2017-10-30T19:57:10.765Z,97.10
2017-10-30T19:59:42.146Z,96.90
2017-10-30T20:02:12.380Z,96.70
2017-10-30T20:04:41.691Z,96.70
2017-10-30T20:07:27.452Z,96.60
2017-10-30T20:10:02.298Z,96.90
2017-10-30T20:12:30.886Z,96.90
2017-10-30T20:14:59.208Z,96.90
2017-10-30T20:17:27.521Z,96.90
2017-10-30T20:19:56.570Z,97.00
2017-10-30T20:22:26.431Z,97.10
2017-10-30T20:24:55.478Z,97.00
2017-10-30T20:27:24.557Z,97.00
2017-10-30T20:29:52.814Z,96.90
2017-10-30T20:32:22.929Z,96.80
2017-10-30T20:34:52.516Z,96.80
2017-10-30T20:37:22.758Z,96.90
2017-10-30T20:39:52.324Z,97.00
2017-10-30T20:42:21.868Z,96.90
2017-10-30T20:44:50.338Z,97.00
2017-10-30T20:47:18.738Z,96.80
2017-10-30T20:49:48.595Z,96.90
2017-10-30T20:52:16.867Z,96.90
2017-10-30T20:54:46.202Z,96.90
2017-10-30T20:57:16.279Z,97.10
2017-10-30T20:59:45.428Z,96.90
2017-10-30T21:02:13.737Z,96.90
2017-10-30T21:04:44.437Z,96.90
2017-10-30T21:07:13.241Z,96.90
2017-10-30T21:09:42.402Z,96.90
2017-10-30T21:12:10.640Z,96.90
2017-10-30T21:14:39.334Z,96.90
2017-10-30T21:17:07.637Z,97.20
2017-10-30T21:19:37.383Z,97.10
2017-10-30T21:22:06.460Z,97.20
2017-10-30T21:24:34.961Z,97.20
2017-10-30T21:27:04.468Z,97.10
2017-10-30T21:29:33.464Z,97.10
2017-10-30T21:32:02.633Z,97.10
2017-10-30T21:34:32.592Z,97.10
2017-10-30T21:37:04.118Z,97.10
2017-10-30T21:39:34.661Z,97.10
2017-10-30T21:42:03.826Z,97.20
2017-10-30T21:44:32.096Z,97.30
2017-10-30T21:47:01.244Z,97.00
2017-10-30T21:49:30.602Z,97.00
2017-10-30T21:52:00.364Z,96.90
2017-10-30T21:54:28.932Z,97.10
2017-10-30T21:56:59.327Z,96.90
2017-10-30T21:59:29.849Z,96.80
2017-10-30T22:02:00.633Z,96.90
2017-10-30T22:04:30.747Z,96.90
2017-10-30T22:07:11.397Z,96.90
2017-10-30T22:09:40.958Z,97.00
2017-10-30T22:12:09.983Z,97.00
2017-10-30T22:14:39.280Z,97.00
2017-10-30T22:17:07.607Z,97.00
2017-10-30T22:19:35.889Z,96.80
2017-10-30T22:22:04.962Z,97.00
2017-10-30T22:24:35.065Z,97.10
2017-10-30T22:27:03.334Z,97.10
2017-10-30T22:29:32.548Z,97.00
2017-10-30T22:32:00.861Z,97.00
2017-10-30T22:34:30.090Z,96.50
2017-10-30T22:36:58.403Z,96.50
2017-10-30T22:39:28.846Z,96.50
2017-10-30T22:41:58.364Z,96.50
2017-10-30T22:44:27.669Z,96.60
2017-10-30T22:46:55.924Z,96.60
2017-10-30T22:49:24.446Z,96.60
2017-10-30T22:51:54.420Z,96.60
2017-10-30T22:54:22.680Z,96.60
2017-10-30T22:56:51.366Z,96.50
2017-10-30T22:59:19.634Z,96.60
2017-10-30T23:01:49.393Z,96.60
2017-10-30T23:04:18.446Z,96.80
2017-10-30T23:06:46.764Z,96.90
2017-10-30T23:09:15.052Z,97.20
2017-10-30T23:11:44.513Z,97.30
2017-10-30T23:14:12.766Z,97.30
2017-10-30T23:16:41.161Z,97.50
2017-10-30T23:19:09.453Z,97.60
2017-10-30T23:21:38.522Z,97.10
2017-10-30T23:24:06.816Z,97.00
2017-10-30T23:26:35.132Z,97.10
2017-10-30T23:29:03.378Z,97.10
2017-10-30T23:31:32.426Z,97.10
2017-10-30T23:34:01.335Z,97.40
2017-10-30T23:36:30.366Z,97.00
2017-10-30T23:38:58.640Z,97.00
2017-10-30T23:41:26.884Z,97.10
2017-10-30T23:43:55.168Z,96.90
2017-10-30T23:46:23.396Z,96.60
2017-10-30T23:48:53.183Z,96.40
2017-10-30T23:51:21.427Z,96.40
2017-10-30T23:53:49.730Z,96.60
2017-10-30T23:56:17.968Z,96.40
2017-10-30T23:58:46.982Z,96.50
